Time;durP1;ratioP1;P1;durP2;ratioP2;P2;SDS_P1;SDS_P2;PMS_P1;PMS_P2;Temp;Humidity;BMP_temperature;BMP_pressure;BME280_temperature;BME280_humidity;BME280_pressure;Samples;Min_cycle;Max_cycle;Signal;HPM_P1;HPM_P2
2022/05/11 00:01:10;;;;;;;7.15;1.80;;;;;;;15.09;64.74;101240.44;5097552;28;20432;-40
2022/05/11 00:03:35;;;;;;;9.93;2.10;;;;;;;15.13;64.99;101244.22;5095975;28;20058;-40
2022/05/11 00:06:01;;;;;;;7.28;2.00;;;;;;;15.02;65.17;101235.28;5097127;28;20413;-40
2022/05/11 00:08:26;;;;;;;7.30;1.92;;;;;;;14.93;65.89;101233.88;5097303;28;20022;-40
2022/05/11 00:10:52;;;;;;;8.98;2.40;;;;;;;14.91;66.17;101237.72;5097027;28;20031;-40
2022/05/11 00:13:18;;;;;;;10.77;2.10;;;;;;;14.94;66.20;101226.91;5097461;28;20067;-40
2022/05/11 00:15:43;;;;;;;7.25;1.88;;;;;;;14.82;66.32;101206.72;5097241;28;20471;-39
2022/05/11 00:18:10;;;;;;;8.95;2.20;;;;;;;14.96;66.46;101222.25;5095564;28;20082;-40
2022/05/11 00:20:36;;;;;;;7.40;2.42;;;;;;;14.99;65.91;101206.22;5097083;28;20108;-40
2022/05/11 00:23:01;;;;;;;10.48;2.10;;;;;;;14.89;65.70;101180.66;5096891;28;20447;-41
2022/05/11 00:25:27;;;;;;;13.43;2.55;;;;;;;14.95;66.24;101197.25;5096938;28;20102;-39
2022/05/11 00:27:54;;;;;;;11.68;2.10;;;;;;;15.04;66.27;101201.22;5096728;28;20069;-40
2022/05/11 00:30:19;;;;;;;8.65;2.42;;;;;;;15.06;65.81;101212.22;5096732;28;20028;-40
2022/05/11 00:32:44;;;;;;;7.85;2.28;;;;;;;15.08;65.48;101205.81;5096933;28;20024;-40
2022/05/11 00:35:09;;;;;;;11.23;2.25;;;;;;;15.06;65.25;101204.44;5096638;28;20024;-40
2022/05/11 00:37:35;;;;;;;6.93;2.08;;;;;;;14.75;65.67;101177.28;5096494;28;20028;-40
2022/05/11 00:40:00;;;;;;;9.18;2.25;;;;;;;14.90;65.65;101205.66;5097606;28;20028;-41
2022/05/11 00:42:26;;;;;;;9.35;2.20;;;;;;;14.92;65.44;101195.84;5096849;28;20031;-40
2022/05/11 00:44:54;;;;;;;7.63;2.15;;;;;;;14.87;65.96;101199.09;5096628;28;20016;-40
2022/05/11 00:47:32;;;;;;;9.73;2.15;;;;;;;14.93;65.61;101194.84;5096370;28;20474;-40
2022/05/11 00:50:03;;;;;;;8.32;2.42;;;;;;;14.92;65.79;101189.84;5095122;28;20020;-40
2022/05/11 00:52:49;;;;;;;12.77;2.20;;;;;;;14.91;66.46;101188.28;5096726;28;20438;-40
2022/05/11 00:55:22;;;;;;;11.23;2.38;;;;;;;14.99;66.01;101188.03;5096548;28;20039;-40
2022/05/11 00:57:55;;;;;;;10.43;2.35;;;;;;;14.97;66.07;101185.63;5096689;28;20480;-40
2022/05/11 01:00:22;;;;;;;10.10;2.95;;;;;;;15.06;66.00;101184.41;5096407;28;20035;-41
2022/05/11 01:02:53;;;;;;;9.30;2.45;;;;;;;15.06;66.11;101183.59;5095604;28;20482;-40
2022/05/11 01:05:19;;;;;;;8.57;2.30;;;;;;;15.07;66.11;101175.56;5096573;28;20024;-40
2022/05/11 01:07:44;;;;;;;12.73;2.60;;;;;;;14.97;66.58;101187.44;5096000;28;20024;-40
2022/05/11 01:10:10;;;;;;;8.05;2.50;;;;;;;14.99;66.95;101180.22;5095813;28;20030;-40
2022/05/11 01:12:40;;;;;;;9.98;2.42;;;;;;;14.99;67.06;101169.81;5096163;28;20158;-40
2022/05/11 01:15:08;;;;;;;12.20;2.75;;;;;;;14.96;67.25;101180.63;5095799;28;20106;-40
2022/05/11 01:17:36;;;;;;;9.60;2.50;;;;;;;14.98;67.40;101178.63;5095939;28;20039;-39
2022/05/11 01:20:05;;;;;;;9.50;2.72;;;;;;;14.94;67.92;101175.66;5095668;28;20028;-40
2022/05/11 01:22:41;;;;;;;9.07;2.67;;;;;;;14.85;68.40;101166.47;5095833;28;20036;-40
2022/05/11 01:25:08;;;;;;;10.23;2.70;;;;;;;14.95;68.02;101155.63;5095698;28;20080;-40
2022/05/11 01:27:37;;;;;;;9.52;2.65;;;;;;;14.85;68.45;101162.06;5095865;28;20020;-40
2022/05/11 01:30:23;;;;;;;9.80;3.00;;;;;;;14.84;68.86;101157.06;5095762;28;20020;-40
2022/05/11 01:32:52;;;;;;;9.82;2.85;;;;;;;14.83;68.96;101155.47;5095790;28;20590;-40
2022/05/11 01:35:39;;;;;;;13.13;3.53;;;;;;;14.80;69.09;101159.28;5095381;28;20031;-40
2022/05/11 01:38:30;;;;;;;9.45;2.83;;;;;;;14.72;69.96;101150.91;5095603;28;20527;-39
2022/05/11 01:40:56;;;;;;;8.32;2.55;;;;;;;14.78;69.68;101143.06;5095588;28;20024;-40
2022/05/11 01:43:25;;;;;;;11.57;3.28;;;;;;;14.73;69.93;101139.47;5095240;28;20045;-40
2022/05/11 01:45:50;;;;;;;13.60;3.28;;;;;;;14.78;69.53;101140.47;5096031;28;20103;-40
2022/05/11 01:48:16;;;;;;;14.07;3.17;;;;;;;14.74;69.38;101138.50;5095242;28;20048;-40
2022/05/11 01:50:42;;;;;;;10.73;3.60;;;;;;;14.73;69.48;101135.09;5095102;28;20027;-39
2022/05/11 01:53:08;;;;;;;9.63;3.00;;;;;;;14.75;69.31;101140.88;5093919;28;20055;-40
2022/05/11 01:55:33;;;;;;;9.07;3.30;;;;;;;14.79;69.06;101151.69;5095273;28;20024;-40
2022/05/11 01:57:59;;;;;;;8.05;3.10;;;;;;;14.81;69.57;101147.84;5094919;28;20020;-40
2022/05/11 02:00:24;;;;;;;15.88;3.72;;;;;;;14.94;68.77;101138.41;5095504;28;20107;-40
2022/05/11 02:02:50;;;;;;;10.18;2.83;;;;;;;14.91;68.70;101149.25;5095170;28;20020;-40
2022/05/11 02:08:00;;;;;;;9.95;3.25;;;;;;;14.88;68.50;101143.44;5095594;28;20074;-40
2022/05/11 02:10:27;;;;;;;12.95;3.28;;;;;;;14.90;68.17;101127.59;5094759;28;20062;-40
2022/05/11 02:12:53;;;;;;;12.20;3.05;;;;;;;14.86;68.32;101124.63;5094548;28;20044;-41
2022/05/11 02:15:19;;;;;;;7.13;2.83;;;;;;;14.87;67.92;101128.84;5094682;28;20030;-40
2022/05/11 02:17:45;;;;;;;10.73;2.90;;;;;;;14.93;68.08;101136.81;5095068;28;20024;-40
2022/05/11 02:20:12;;;;;;;9.30;2.90;;;;;;;14.86;68.16;101137.63;5094879;28;20395;-39
2022/05/11 02:22:38;;;;;;;13.00;3.60;;;;;;;14.85;68.21;101135.25;5094802;28;20107;-40
2022/05/11 02:25:04;;;;;;;11.70;3.47;;;;;;;14.88;67.69;101120.00;5094581;28;20079;-40
2022/05/11 02:27:33;;;;;;;12.02;3.50;;;;;;;15.05;67.65;101135.97;5094430;28;20032;-40
2022/05/11 02:29:59;;;;;;;10.32;3.25;;;;;;;14.95;68.04;101134.81;5094930;28;20020;-40
2022/05/11 02:32:25;;;;;;;10.60;3.38;;;;;;;14.87;68.26;101136.66;5094638;28;20350;-40
2022/05/11 02:37:34;;;;;;;12.82;3.55;;;;;;;14.90;68.41;101132.81;5094656;28;20049;-40
2022/05/11 02:40:00;;;;;;;10.02;3.25;;;;;;;14.96;68.02;101121.59;5094180;28;20114;-41
2022/05/11 02:42:25;;;;;;;11.38;3.17;;;;;;;14.92;68.58;101120.41;5094188;28;20459;-40
2022/05/11 02:44:52;;;;;;;16.95;3.58;;;;;;;14.88;68.53;101111.41;5094417;28;20394;-40
2022/05/11 02:47:17;;;;;;;14.23;3.60;;;;;;;14.86;68.54;101111.59;5094313;28;20016;-40
2022/05/11 02:49:44;;;;;;;13.00;3.25;;;;;;;14.69;69.18;101088.88;5092737;28;20458;-40
2022/05/11 02:52:09;;;;;;;11.10;3.55;;;;;;;14.81;68.91;101098.41;5094321;28;20394;-40
2022/05/11 02:54:35;;;;;;;13.30;3.58;;;;;;;14.81;68.63;101097.63;5094161;28;20024;-39
2022/05/11 02:57:00;;;;;;;11.00;3.42;;;;;;;14.80;68.67;101096.03;5093815;28;20032;-40
2022/05/11 02:59:25;;;;;;;10.70;3.63;;;;;;;14.74;68.97;101092.47;5094462;28;20020;-40
2022/05/11 03:01:51;;;;;;;10.90;3.90;;;;;;;14.71;68.93;101097.28;5093797;28;20024;-49
2022/05/11 03:04:18;;;;;;;9.02;3.30;;;;;;;14.72;69.31;101101.47;5093919;28;20035;-40
2022/05/11 03:06:47;;;;;;;9.10;3.20;;;;;;;14.64;68.72;101097.28;5094030;28;20024;-40
2022/05/11 03:09:15;;;;;;;10.50;3.08;;;;;;;14.70;69.02;101095.66;5093960;28;20048;-40
2022/05/11 03:11:42;;;;;;;11.00;3.03;;;;;;;14.71;68.68;101097.28;5093665;28;20094;-40
2022/05/11 03:14:09;;;;;;;10.05;3.00;;;;;;;14.69;68.48;101094.88;5094027;28;20035;-40
2022/05/11 03:16:35;;;;;;;12.02;3.55;;;;;;;14.64;69.07;101092.09;5093574;28;20024;-40
2022/05/11 03:19:02;;;;;;;10.07;3.25;;;;;;;14.67;68.24;101068.25;5093893;28;20440;-40
2022/05/11 03:21:27;;;;;;;11.30;3.05;;;;;;;14.83;67.64;101088.59;5093871;28;20023;-40
2022/05/11 03:23:54;;;;;;;13.13;3.28;;;;;;;14.76;67.54;101089.63;5093549;28;20024;-39
2022/05/11 03:26:19;;;;;;;8.25;2.65;;;;;;;14.72;67.58;101078.84;5093120;28;20117;-40
2022/05/11 03:28:44;;;;;;;15.02;3.28;;;;;;;14.69;67.48;101076.66;5094072;28;20021;-39
2022/05/11 03:31:10;;;;;;;10.07;2.95;;;;;;;14.82;66.75;101081.81;5093479;28;20058;-40
2022/05/11 03:36:19;;;;;;;8.63;2.58;;;;;;;14.82;66.09;101086.22;5094289;28;20074;-40
2022/05/11 03:38:44;;;;;;;10.60;2.70;;;;;;;14.69;66.52;101086.28;5091997;28;20020;-40
2022/05/11 03:41:09;;;;;;;9.70;2.70;;;;;;;14.77;65.52;101079.03;5093632;28;20070;-40
2022/05/11 03:43:35;;;;;;;8.93;2.53;;;;;;;14.81;64.97;101072.41;5093433;28;20027;-40
2022/05/11 03:46:00;;;;;;;7.45;2.50;;;;;;;14.76;65.33;101074.84;5093316;28;20046;-40
2022/05/11 03:48:26;;;;;;;7.95;2.28;;;;;;;14.78;64.81;101074.63;5093587;28;20368;-40
2022/05/11 03:50:51;;;;;;;8.00;2.60;;;;;;;14.78;64.84;101072.03;5093560;28;20051;-49
2022/05/11 03:53:16;;;;;;;10.40;2.53;;;;;;;14.75;65.16;101065.44;5093788;28;20032;-40
2022/05/11 03:55:42;;;;;;;8.45;2.42;;;;;;;14.77;65.32;101060.81;5093225;28;20055;-40
2022/05/11 03:58:07;;;;;;;8.43;2.42;;;;;;;14.73;64.88;101059.66;5093458;28;20446;-40
2022/05/11 04:00:32;;;;;;;6.07;1.88;;;;;;;14.64;65.06;101059.09;5093255;28;20024;-41
2022/05/11 04:02:58;;;;;;;9.35;2.50;;;;;;;14.69;64.67;101058.47;5093206;28;20067;-39
2022/05/11 04:05:24;;;;;;;9.15;2.35;;;;;;;14.81;64.41;101061.19;5093090;28;20490;-39
2022/05/11 04:07:50;;;;;;;8.02;2.15;;;;;;;14.75;64.02;101062.81;5093406;28;20136;-40
2022/05/11 04:10:17;;;;;;;7.35;2.20;;;;;;;14.69;63.90;101053.25;5092929;28;20078;-40
2022/05/11 04:12:43;;;;;;;9.07;1.98;;;;;;;14.73;63.56;101046.66;5093485;28;20396;-40
2022/05/11 04:15:09;;;;;;;6.63;1.98;;;;;;;14.72;63.00;101046.84;5092898;28;20028;-40
2022/05/11 04:17:35;;;;;;;6.68;1.80;;;;;;;14.76;63.05;101053.22;5093061;28;20028;-40
2022/05/11 04:20:01;;;;;;;10.00;2.28;;;;;;;14.85;62.39;101046.78;5093142;28;20031;-39
2022/05/11 04:22:26;;;;;;;4.93;1.70;;;;;;;14.84;62.09;101040.75;5093572;28;20028;-39
2022/05/11 04:24:51;;;;;;;7.75;1.98;;;;;;;14.74;61.63;101042.25;5092618;28;20040;-40
2022/05/11 04:27:17;;;;;;;9.77;1.80;;;;;;;14.81;61.42;101050.78;5092982;28;20050;-40
2022/05/11 04:29:42;;;;;;;9.00;1.70;;;;;;;14.78;61.62;101040.81;5091667;28;20427;-39
2022/05/11 04:32:08;;;;;;;9.25;2.10;;;;;;;14.86;61.22;101035.38;5091448;28;20020;-47
2022/05/11 04:34:34;;;;;;;8.85;1.60;;;;;;;14.81;61.06;101040.38;5092975;28;20534;-39
2022/05/11 04:37:00;;;;;;;7.60;1.83;;;;;;;14.89;61.11;101053.16;5093994;28;20032;-40
2022/05/11 04:39:25;;;;;;;9.68;1.98;;;;;;;14.87;60.97;101045.56;5096442;28;20379;-40
2022/05/11 04:41:51;;;;;;;8.20;1.50;;;;;;;14.98;60.29;101040.69;5096319;28;20031;-40
2022/05/11 04:44:16;;;;;;;7.93;1.67;;;;;;;14.95;60.70;101046.31;5096351;28;20023;-40
2022/05/11 04:46:41;;;;;;;6.30;1.65;;;;;;;14.82;61.27;101045.41;5096938;28;20028;-41
2022/05/11 04:49:19;;;;;;;8.93;1.70;;;;;;;14.90;61.12;101044.34;5096729;28;20055;-40
2022/05/11 04:51:49;;;;;;;6.40;1.42;;;;;;;14.90;61.09;101049.53;5096692;28;20172;-40
2022/05/11 04:54:16;;;;;;;5.72;1.70;;;;;;;15.07;60.52;101044.66;5096340;28;20024;-40
2022/05/11 04:56:42;;;;;;;7.13;1.83;;;;;;;15.12;60.24;101043.00;5095997;28;20386;-40
2022/05/11 04:59:08;;;;;;;8.32;1.70;;;;;;;15.09;60.72;101050.44;5095717;28;20016;-41
2022/05/11 05:01:34;;;;;;;7.60;1.85;;;;;;;15.12;60.00;101035.19;5095564;28;20059;-41
2022/05/11 05:04:00;;;;;;;6.95;1.70;;;;;;;15.05;59.83;101034.47;5093782;28;20362;-41
2022/05/11 05:06:27;;;;;;;10.05;1.73;;;;;;;15.09;59.49;101032.22;5095536;28;20154;-41
2022/05/11 05:08:53;;;;;;;5.97;1.67;;;;;;;14.98;59.52;101014.69;5093793;28;20397;-41
2022/05/11 05:11:18;;;;;;;6.38;1.58;;;;;;;15.24;59.13;101043.13;5095460;28;20032;-40
2022/05/11 05:13:43;;;;;;;8.02;1.90;;;;;;;15.17;59.54;101036.38;5096334;28;20388;-41
2022/05/11 05:16:08;;;;;;;6.55;2.08;;;;;;;15.08;59.56;101038.44;5095910;28;20028;-40
2022/05/11 05:18:35;;;;;;;6.20;1.58;;;;;;;15.23;59.10;101040.75;5096054;28;20078;-40
2022/05/11 05:21:00;;;;;;;7.30;1.65;;;;;;;15.18;58.85;101043.19;5095598;28;20020;-42
2022/05/11 05:23:26;;;;;;;7.03;1.88;;;;;;;15.31;58.85;101045.69;5095899;28;20046;-41
2022/05/11 05:25:51;;;;;;;6.60;1.55;;;;;;;15.40;58.84;101051.44;5095187;28;20055;-40
2022/05/11 05:31:06;;;;;;;6.03;1.48;;;;;;;15.64;58.09;101049.84;5095782;28;20034;-42
2022/05/11 05:33:33;;;;;;;10.25;1.92;;;;;;;15.55;58.39;101052.72;5094122;28;20020;-41
2022/05/11 05:35:59;;;;;;;5.68;1.40;;;;;;;15.40;58.12;101047.03;5095649;28;20475;-41
2022/05/11 05:38:25;;;;;;;8.57;1.52;;;;;;;15.40;58.32;101049.63;5095460;28;20058;-38
2022/05/11 05:40:50;;;;;;;5.68;1.80;;;;;;;15.62;57.50;101046.66;5095395;28;20020;-39
2022/05/11 05:43:15;;;;;;;10.90;1.90;;;;;;;15.78;56.61;101056.56;5095086;28;20123;-39
2022/05/11 05:45:46;;;;;;;7.25;1.60;;;;;;;15.54;56.97;101050.34;5095737;28;20030;-40
2022/05/11 05:48:17;;;;;;;6.90;1.63;;;;;;;15.53;56.61;101027.88;5094990;28;20051;-40
2022/05/11 05:50:42;;;;;;;5.35;1.70;;;;;;;16.04;56.30;101059.94;5095469;28;20028;-40
2022/05/11 05:53:07;;;;;;;5.82;1.65;;;;;;;22.62;39.90;101050.53;5095809;28;20023;-42
2022/05/11 05:55:33;;;;;;;7.82;1.90;;;;;;;25.08;34.50;101063.03;5095231;28;20035;-41
2022/05/11 05:57:59;;;;;;;6.22;1.67;;;;;;;25.34;33.87;101058.34;5094811;28;20421;-39
2022/05/11 06:00:25;;;;;;;7.10;1.65;;;;;;;25.42;32.82;101058.50;5095089;28;20028;-42
2022/05/11 06:02:50;;;;;;;7.28;1.95;;;;;;;25.77;31.94;101055.78;5094713;28;20076;-42
2022/05/11 06:05:15;;;;;;;5.37;1.60;;;;;;;26.93;30.46;101049.19;5095221;28;20035;-40
2022/05/11 06:07:41;;;;;;;5.32;1.58;;;;;;;26.46;30.87;101045.66;5094871;28;20262;-41
2022/05/11 06:10:06;;;;;;;4.88;1.60;;;;;;;27.89;28.95;101053.88;5094658;28;20034;-40
2022/05/11 06:12:32;;;;;;;6.05;1.65;;;;;;;28.47;28.15;101055.06;5094471;28;20032;-40
2022/05/11 06:14:57;;;;;;;6.93;1.70;;;;;;;26.20;30.93;101047.88;5095175;28;20023;-40
2022/05/11 06:17:23;;;;;;;6.27;1.90;;;;;;;25.11;33.06;101052.69;5094530;28;20135;-40
2022/05/11 06:19:50;;;;;;;10.10;1.83;;;;;;;21.34;39.78;101049.09;5094978;28;20262;-40
2022/05/11 06:22:16;;;;;;;8.88;1.70;;;;;;;18.91;45.31;101055.22;5094667;28;20134;-40
2022/05/11 06:24:42;;;;;;;6.13;1.60;;;;;;;18.25;46.93;101032.00;5094176;28;20047;-39
2022/05/11 06:27:15;;;;;;;7.90;1.70;;;;;;;18.34;47.44;101044.72;5094450;28;20028;-40
2022/05/11 06:29:40;;;;;;;7.93;1.60;;;;;;;17.49;48.93;101049.44;5094537;28;20032;-39
2022/05/11 06:32:06;;;;;;;8.70;1.75;;;;;;;17.50;49.41;101040.56;5094766;28;20030;-39
2022/05/11 06:34:31;;;;;;;10.40;1.83;;;;;;;17.93;48.48;101038.66;5093063;28;20020;-39
2022/05/11 06:36:56;;;;;;;7.28;1.50;;;;;;;19.65;44.83;101044.66;5094124;28;20031;-40
2022/05/11 06:39:23;;;;;;;8.02;1.65;;;;;;;21.45;41.31;101036.84;5094273;28;20030;-40
2022/05/11 06:41:49;;;;;;;10.95;1.95;;;;;;;24.00;35.54;101037.25;5094305;28;20107;-41
2022/05/11 06:44:14;;;;;;;9.02;1.83;;;;;;;20.82;41.06;101045.25;5094379;28;20479;-40
2022/05/11 06:46:39;;;;;;;7.32;1.90;;;;;;;20.44;41.99;101044.31;5094137;28;20379;-40
2022/05/11 06:49:05;;;;;;;11.18;1.77;;;;;;;18.89;45.72;101042.34;5093868;28;20020;-40
2022/05/11 06:51:30;;;;;;;9.38;2.05;;;;;;;17.98;48.25;101038.75;5094143;28;20074;-39
2022/05/11 06:59:27;;;;;;;12.55;1.83;;;;;;;20.69;43.66;101048.28;5094039;28;20039;-41
2022/05/11 07:01:57;;;;;;;6.80;1.40;;;;;;;20.14;44.31;101041.31;5093947;28;20020;-41
2022/05/11 07:04:24;;;;;;;7.20;1.75;;;;;;;20.39;43.23;101040.84;5094200;28;20028;-48
2022/05/11 07:06:52;;;;;;;7.05;1.80;;;;;;;23.10;38.02;101045.88;5094057;28;20035;-40
2022/05/11 07:09:18;;;;;;;11.57;1.77;;;;;;;24.54;34.83;101039.13;5093561;28;20043;-41
2022/05/11 07:14:27;;;;;;;10.90;1.83;;;;;;;23.02;37.36;101048.22;5093811;28;20382;-40
2022/05/11 07:16:52;;;;;;;8.10;1.88;;;;;;;23.23;37.69;101041.88;5092613;28;20024;-40
2022/05/11 07:19:21;;;;;;;9.80;1.73;;;;;;;20.70;42.08;101045.41;5093750;28;20386;-45
2022/05/11 07:21:46;;;;;;;8.13;1.48;;;;;;;21.39;41.42;101047.31;5093530;28;20028;-39
2022/05/11 07:24:11;;;;;;;8.93;2.08;;;;;;;19.87;43.67;101043.88;5093332;28;20024;-40
2022/05/11 07:26:37;;;;;;;7.45;1.58;;;;;;;21.84;39.37;101032.88;5093486;28;20397;-40
2022/05/11 07:29:02;;;;;;;6.93;1.60;;;;;;;21.82;40.50;101031.53;5093269;28;20039;-39
2022/05/11 07:31:27;;;;;;;6.97;1.45;;;;;;;21.08;41.53;101041.00;5093078;28;20111;-40
2022/05/11 07:33:53;;;;;;;7.25;1.38;;;;;;;20.30;42.31;101019.47;5093444;28;20055;-40
2022/05/11 07:36:19;;;;;;;7.95;1.73;;;;;;;19.96;43.02;101030.09;5093134;28;20054;-39
2022/05/11 07:38:45;;;;;;;10.85;1.85;;;;;;;20.00;42.58;101020.72;5093886;28;20081;-40
2022/05/11 07:41:10;;;;;;;6.55;1.40;;;;;;;19.22;43.73;101024.28;5093207;28;20414;-40
2022/05/11 07:43:37;;;;;;;4.72;1.20;;;;;;;18.89;44.41;101028.47;5093591;28;20051;-40
2022/05/11 07:46:02;;;;;;;4.55;1.20;;;;;;;20.36;40.99;101033.44;5093482;28;20060;-40
2022/05/11 07:48:27;;;;;;;4.75;1.40;;;;;;;21.09;40.05;101028.66;5094078;28;20388;-40
2022/05/11 07:50:54;;;;;;;4.80;1.10;;;;;;;21.26;39.18;101024.06;5092755;28;20046;-41
2022/05/11 07:53:19;;;;;;;6.80;1.15;;;;;;;20.68;39.70;101030.91;5093647;28;20471;-50
2022/05/11 07:55:44;;;;;;;5.35;1.33;;;;;;;21.37;39.63;101023.09;5093568;28;20052;-41
2022/05/11 08:00:55;;;;;;;8.25;1.58;;;;;;;21.75;39.60;101023.06;5093189;28;20428;-40
2022/05/11 08:03:20;;;;;;;4.93;1.38;;;;;;;21.33;39.78;101031.75;5093498;28;20107;-40
2022/05/11 08:05:46;;;;;;;7.40;1.58;;;;;;;21.73;38.66;101022.56;5093161;28;20039;-40
2022/05/11 08:08:11;;;;;;;4.05;1.20;;;;;;;21.15;39.85;101022.41;5093299;28;20467;-40
2022/05/11 08:10:40;;;;;;;3.60;1.13;;;;;;;22.07;39.11;101020.34;5093240;28;20028;-40
2022/05/11 08:13:07;;;;;;;8.40;1.42;;;;;;;22.06;39.68;101016.88;5095812;28;20102;-39
2022/05/11 08:15:35;;;;;;;7.05;1.85;;;;;;;21.97;38.05;101031.59;5096809;28;20020;-40
2022/05/11 08:18:01;;;;;;;6.00;0.95;;;;;;;21.79;38.29;101024.16;5096296;28;20031;-39
2022/05/11 08:20:29;;;;;;;6.85;1.13;;;;;;;21.92;37.74;101015.00;5097392;28;20028;-39
2022/05/11 08:22:56;;;;;;;9.43;1.20;;;;;;;22.39;37.14;101032.56;5097454;28;20028;-40
2022/05/11 08:25:24;;;;;;;6.15;1.30;;;;;;;21.71;37.85;101020.16;5096564;28;20048;-39
2022/05/11 08:27:51;;;;;;;8.48;1.38;;;;;;;21.03;39.24;101024.41;5095392;28;20063;-39
2022/05/11 08:35:49;;;;;;;6.75;1.23;;;;;;;21.24;38.29;101020.13;5096727;28;20034;-39
2022/05/11 08:38:15;;;;;;;7.03;1.40;;;;;;;22.35;37.58;101028.84;5096328;28;20115;-38
2022/05/11 08:40:51;;;;;;;4.97;1.15;;;;;;;21.91;37.67;101024.72;5096467;28;20102;-39
2022/05/11 08:43:17;;;;;;;5.80;1.33;;;;;;;22.11;38.11;101025.88;5096736;28;20020;-40
2022/05/11 08:46:03;;;;;;;7.53;1.35;;;;;;;21.99;37.74;101036.63;5095143;28;20036;-39
2022/05/11 08:48:54;;;;;;;4.45;1.10;;;;;;;21.81;38.71;101022.06;5096589;28;20360;-39
2022/05/11 08:51:37;;;;;;;5.47;1.15;;;;;;;21.65;38.96;101030.91;5096573;28;20035;-35
2022/05/11 08:54:20;;;;;;;;;;;;;;;22.26;38.18;101028.56;5097434;28;20047;-35
2022/05/11 08:56:47;;;;;;;7.03;1.40;;;;;;;21.77;39.10;101032.28;5096012;28;19958;-35
2022/05/11 08:59:23;;;;;;;5.05;1.50;;;;;;;22.10;38.92;101022.44;5095262;28;20362;-35
2022/05/11 09:01:51;;;;;;;7.95;1.50;;;;;;;21.96;39.56;101034.50;5095533;28;20031;-36
2022/05/11 09:04:22;;;;;;;8.80;1.45;;;;;;;21.97;38.44;101022.91;5095225;28;20024;-35
2022/05/11 09:06:48;;;;;;;8.80;1.75;;;;;;;21.77;39.52;101024.41;5095777;28;20020;-36
2022/05/11 09:09:16;;;;;;;10.65;1.80;;;;;;;23.37;38.93;101003.38;5096097;28;20016;-35
2022/05/11 09:11:49;;;;;;;6.55;1.58;;;;;;;22.98;37.97;101017.13;5094607;28;20077;-35
2022/05/11 09:14:20;;;;;;;8.43;1.60;;;;;;;23.52;37.43;101015.72;5096133;28;20115;-35
2022/05/11 09:16:49;;;;;;;5.97;1.48;;;;;;;22.94;37.40;101009.97;5095718;28;20028;-35
2022/05/11 09:19:21;;;;;;;8.30;1.70;;;;;;;21.79;38.68;101011.78;5095716;28;20085;-37
2022/05/11 09:22:14;;;;;;;4.70;1.50;;;;;;;22.04;38.83;101019.00;5095352;28;20058;-35
2022/05/11 09:24:49;;;;;;;8.93;1.85;;;;;;;21.82;38.40;100987.59;5095642;28;20047;-36
2022/05/11 09:27:24;;;;;;;10.30;2.03;;;;;;;22.01;38.32;101013.44;5095609;28;20020;-35
2022/05/11 09:30:01;;;;;;;6.82;1.60;;;;;;;21.72;38.98;101024.41;5094058;28;20040;-37
2022/05/11 09:32:42;;;;;;;7.07;1.90;;;;;;;22.79;38.74;101020.50;5094747;28;20020;-35
2022/05/11 09:35:14;;;;;;;5.47;1.40;;;;;;;22.33;38.02;101023.88;5095376;28;20024;-35
2022/05/11 09:37:42;;;;;;;14.38;2.00;;;;;;;23.19;36.50;101030.31;5094915;28;20047;-36
2022/05/11 09:40:14;;;;;;;10.07;1.83;;;;;;;22.38;37.56;101029.13;5094956;28;20044;-35
2022/05/11 09:42:50;;;;;;;8.10;1.70;;;;;;;23.34;35.93;101030.28;5095835;28;20028;-35
2022/05/11 09:45:34;;;;;;;9.10;2.00;;;;;;;23.22;36.00;101026.31;5096196;28;20499;-35
2022/05/11 09:48:02;;;;;;;12.02;2.22;;;;;;;23.03;36.70;100994.47;5095638;28;20454;-35
2022/05/11 09:50:28;;;;;;;9.45;1.60;;;;;;;23.18;35.39;101041.88;5095406;28;20023;-36
2022/05/11 09:53:16;;;;;;;8.20;1.67;;;;;;;21.92;36.46;101031.56;5095138;28;20089;-35
2022/05/11 09:55:42;;;;;;;7.63;1.73;;;;;;;21.76;37.13;101030.72;5095398;28;20026;-35
2022/05/11 09:58:07;;;;;;;9.75;1.98;;;;;;;22.89;36.17;101036.31;5094822;28;20016;-35
2022/05/11 10:00:41;;;;;;;10.60;2.08;;;;;;;22.89;37.54;101034.47;5095150;28;20020;-34
2022/05/11 10:03:14;;;;;;;16.83;2.20;;;;;;;23.31;37.08;101036.09;5093656;28;20012;-34
2022/05/11 10:05:44;;;;;;;6.25;1.80;;;;;;;23.42;36.94;101045.56;5095120;28;20040;-34
2022/05/11 10:08:13;;;;;;;14.73;2.50;;;;;;;23.01;37.60;101036.88;5093681;28;20031;-35
2022/05/11 10:10:49;;;;;;;8.82;2.10;;;;;;;22.69;37.95;101048.41;5094698;28;20097;-33
2022/05/11 10:13:21;;;;;;;8.00;2.30;;;;;;;22.67;39.27;101028.66;5094980;28;20468;-34
2022/05/11 10:21:50;;;;;;;12.52;2.33;;;;;;;22.70;40.15;101026.31;5094462;28;20071;-33
2022/05/11 10:24:48;;;;;;;14.13;2.63;;;;;;;23.39;40.42;101032.09;5094632;28;20032;-34
2022/05/11 10:27:23;;;;;;;10.68;2.83;;;;;;;23.84;39.24;101033.88;5094548;28;20020;-34
2022/05/11 10:30:23;;;;;;;13.38;2.45;;;;;;;24.15;39.40;101022.41;5094568;28;20048;-35
2022/05/11 10:33:14;;;;;;;17.02;2.47;;;;;;;23.86;38.32;101021.19;5094627;28;20020;-36
2022/05/11 10:35:50;;;;;;;15.82;2.33;;;;;;;24.26;38.29;101031.84;5093601;28;20419;-34
2022/05/11 10:38:38;;;;;;;10.70;2.78;;;;;;;23.72;39.02;101028.09;5094171;28;20450;-35
2022/05/11 10:41:14;;;;;;;12.75;2.60;;;;;;;23.17;40.60;101035.84;5093935;28;20111;-34
2022/05/11 10:44:15;;;;;;;11.57;2.47;;;;;;;23.20;40.17;101039.78;5092147;28;20438;-36
2022/05/11 10:46:58;;;;;;;13.35;2.80;;;;;;;23.55;38.85;101041.56;5094829;28;20055;-36
2022/05/11 10:49:56;;;;;;;13.80;2.30;;;;;;;22.42;38.59;101046.00;5094593;28;20028;-39
2022/05/11 10:52:39;;;;;;;14.43;2.28;;;;;;;22.94;39.07;101038.97;5094602;28;20430;-35
2022/05/11 10:55:25;;;;;;;13.00;2.35;;;;;;;23.25;38.43;101031.06;5095141;28;20031;-34
2022/05/11 10:58:04;;;;;;;11.48;2.30;;;;;;;23.32;37.79;101037.66;5094083;28;20054;-36
2022/05/11 11:00:32;;;;;;;9.40;2.00;;;;;;;23.85;37.94;101019.63;5093772;28;20028;-35
2022/05/11 11:03:27;;;;;;;8.73;1.83;;;;;;;24.00;37.27;101016.13;5092534;28;20035;-35
2022/05/11 11:09:11;;;;;;;9.68;2.33;;;;;;;24.28;36.15;101024.44;5092415;28;20050;-34
2022/05/11 11:11:50;;;;;;;10.80;2.15;;;;;;;24.21;35.53;101021.31;5093014;28;20020;-35
2022/05/11 11:14:25;;;;;;;9.68;1.80;;;;;;;24.24;36.75;101018.91;5092960;28;20483;-37
2022/05/11 11:16:51;;;;;;;9.40;2.00;;;;;;;24.03;35.83;100994.47;5093694;28;20110;-35
2022/05/11 11:19:16;;;;;;;10.35;2.00;;;;;;;24.29;35.19;101010.97;5093776;28;20020;-35
2022/05/11 11:21:42;;;;;;;9.43;1.77;;;;;;;24.45;34.82;101021.47;5093722;28;20028;-35
2022/05/11 11:24:22;;;;;;;7.32;1.73;;;;;;;24.32;34.43;100999.84;5093441;28;20027;-36
2022/05/11 11:26:59;;;;;;;10.60;1.90;;;;;;;25.04;34.11;101003.84;5093784;28;20043;-35
2022/05/11 11:29:31;;;;;;;7.47;1.48;;;;;;;24.08;34.44;100996.28;5093836;28;20040;-35
2022/05/11 11:31:56;;;;;;;7.20;2.15;;;;;;;23.97;35.86;101005.34;5093743;28;20067;-35
2022/05/11 11:34:23;;;;;;;10.00;1.60;;;;;;;24.18;34.69;101006.00;5093449;28;20469;-35
2022/05/11 11:36:49;;;;;;;13.52;2.00;;;;;;;25.00;34.37;101000.94;5093922;28;20027;-37
2022/05/11 11:39:49;;;;;;;6.82;1.75;;;;;;;24.27;34.48;100997.25;5093235;28;20024;-35
2022/05/11 11:42:29;;;;;;;8.73;2.22;;;;;;;23.26;36.15;100988.63;5094097;28;20027;-35
2022/05/11 11:44:55;;;;;;;9.10;2.28;;;;;;;23.77;36.21;100988.53;5093780;28;20024;-35
2022/05/11 11:47:59;;;;;;;7.80;1.95;;;;;;;24.33;35.27;100982.94;5097580;28;20470;-36
2022/05/11 11:50:45;;;;;;;14.82;2.33;;;;;;;24.80;34.42;100990.56;5097497;28;20020;-36
2022/05/11 11:53:21;;;;;;;12.10;2.45;;;;;;;24.36;35.19;100994.03;5097441;28;20463;-35
2022/05/11 11:55:48;;;;;;;5.95;1.65;;;;;;;24.36;35.50;100986.09;5097108;28;20035;-35
2022/05/11 11:58:27;;;;;;;6.68;1.67;;;;;;;24.73;35.81;100965.25;5097462;28;20017;-35
2022/05/11 12:00:59;;;;;;;8.32;2.03;;;;;;;24.57;34.93;100976.19;5096574;28;20036;-39
2022/05/11 12:03:29;;;;;;;7.43;1.80;;;;;;;24.32;35.03;100980.59;5096175;28;20078;-40
2022/05/11 12:15:01;;;;;;;10.10;2.08;;;;;;;24.32;34.21;100981.38;5096690;28;20065;-40
2022/05/11 12:17:05;;;;;;;11.45;2.00;;;;;;;24.53;35.78;100983.91;5096883;28;20030;-40